createdAt,value
2023-02-26T00:00:38.138Z,51.80
2023-02-26T00:03:04.681Z,51.70
2023-02-26T00:05:31.148Z,51.90
2023-02-26T00:07:57.643Z,52.00
2023-02-26T00:10:24.118Z,52.10
2023-02-26T00:12:50.598Z,51.80
2023-02-26T00:15:17.122Z,52.10
2023-02-26T00:17:43.649Z,51.90
2023-02-26T00:20:10.134Z,52.10
2023-02-26T00:22:36.631Z,51.90
2023-02-26T00:25:03.127Z,51.90
2023-02-26T00:27:29.608Z,51.90
2023-02-26T00:29:56.072Z,52.10
2023-02-26T00:32:22.712Z,51.80
2023-02-26T00:34:49.219Z,52.00
2023-02-26T00:37:15.714Z,52.10
2023-02-26T00:39:42.261Z,51.70
2023-02-26T00:42:08.781Z,51.70
2023-02-26T00:44:35.263Z,51.60
2023-02-26T00:47:01.758Z,51.70
2023-02-26T00:49:28.297Z,51.70
2023-02-26T00:51:54.754Z,51.70
2023-02-26T00:54:21.267Z,51.90
2023-02-26T00:56:47.744Z,52.00
2023-02-26T00:59:14.248Z,51.80
2023-02-26T01:01:40.770Z,51.60
2023-02-26T01:04:08.301Z,51.90
2023-02-26T01:06:34.838Z,52.00
2023-02-26T01:09:01.342Z,51.90
2023-02-26T01:11:27.832Z,51.70
2023-02-26T01:13:54.333Z,51.40
2023-02-26T01:16:20.811Z,51.80
2023-02-26T01:18:47.528Z,52.00
2023-02-26T01:21:14.033Z,52.00
2023-02-26T01:23:40.565Z,51.70
2023-02-26T01:26:07.030Z,51.70
2023-02-26T01:28:33.538Z,51.50
2023-02-26T01:31:00.106Z,51.80
2023-02-26T01:33:26.730Z,51.50
2023-02-26T01:35:53.273Z,51.60
2023-02-26T01:38:19.871Z,51.70
2023-02-26T01:40:46.402Z,51.70
2023-02-26T01:43:12.935Z,51.90
2023-02-26T01:45:39.423Z,51.50
2023-02-26T01:48:05.897Z,51.70
2023-02-26T01:50:38.292Z,51.60
2023-02-26T01:53:04.784Z,51.40
2023-02-26T01:55:31.292Z,51.60
2023-02-26T01:57:57.778Z,51.70
2023-02-26T02:00:26.326Z,52.00
2023-02-26T02:02:52.924Z,51.70
2023-02-26T02:05:19.527Z,51.20
2023-02-26T02:07:45.995Z,51.40
2023-02-26T02:10:12.489Z,51.50
2023-02-26T02:12:38.957Z,51.40
2023-02-26T02:15:05.516Z,51.50
2023-02-26T02:17:32.021Z,51.30
2023-02-26T02:19:58.577Z,51.30
2023-02-26T02:22:25.047Z,51.20
2023-02-26T02:24:51.541Z,51.20
2023-02-26T02:27:18.046Z,51.40
2023-02-26T02:29:44.553Z,51.30
2023-02-26T02:32:11.171Z,51.10
2023-02-26T02:34:37.789Z,51.80
2023-02-26T02:37:04.249Z,51.30
2023-02-26T02:39:30.736Z,51.30
2023-02-26T02:41:57.208Z,51.70
2023-02-26T02:44:23.741Z,51.30
2023-02-26T02:46:50.260Z,51.20
2023-02-26T02:49:16.783Z,51.80
2023-02-26T02:51:43.268Z,51.30
2023-02-26T02:54:09.751Z,51.50
2023-02-26T02:56:36.234Z,51.30
2023-02-26T02:59:02.726Z,51.10
2023-02-26T03:01:32.369Z,51.30
2023-02-26T03:03:58.841Z,51.20
2023-02-26T03:06:25.322Z,51.20
2023-02-26T03:08:51.801Z,50.80
2023-02-26T03:11:18.280Z,51.00
2023-02-26T03:13:44.759Z,51.50
2023-02-26T03:16:11.325Z,51.10
2023-02-26T03:18:37.874Z,51.20
2023-02-26T03:21:04.371Z,51.20
2023-02-26T03:23:32.335Z,51.00
2023-02-26T03:25:58.832Z,50.90
2023-02-26T03:28:25.323Z,51.30
2023-02-26T03:30:51.822Z,50.90
2023-02-26T03:33:18.342Z,51.20
2023-02-26T03:35:44.844Z,50.90
2023-02-26T03:38:11.326Z,51.00
2023-02-26T03:40:37.846Z,51.00
2023-02-26T03:43:04.319Z,51.40
2023-02-26T03:45:30.822Z,50.90
2023-02-26T03:47:57.304Z,51.00
2023-02-26T03:50:23.833Z,51.10
2023-02-26T03:52:50.322Z,51.00
2023-02-26T03:55:16.816Z,50.90
2023-02-26T03:57:43.292Z,50.70
2023-02-26T04:00:09.796Z,51.20
2023-02-26T04:02:36.305Z,50.80
2023-02-26T04:05:02.804Z,51.80
2023-02-26T04:07:29.275Z,51.70
2023-02-26T04:09:56.383Z,51.00
2023-02-26T04:12:22.841Z,51.10
2023-02-26T04:14:49.333Z,50.70
2023-02-26T04:17:16.975Z,51.10
2023-02-26T04:19:44.354Z,51.80
2023-02-26T04:22:10.832Z,50.90
2023-02-26T04:24:37.319Z,50.80
2023-02-26T04:27:03.882Z,50.70
2023-02-26T04:29:30.371Z,50.50
2023-02-26T04:32:02.700Z,50.80
2023-02-26T04:34:29.310Z,50.80
2023-02-26T04:36:55.783Z,50.30
2023-02-26T04:39:22.268Z,50.30
2023-02-26T04:41:48.735Z,50.60
2023-02-26T04:44:15.219Z,50.50
2023-02-26T04:46:41.804Z,50.60
2023-02-26T04:49:08.335Z,50.60
2023-02-26T04:51:34.814Z,50.60
2023-02-26T04:54:01.299Z,50.20
2023-02-26T04:56:28.001Z,50.40
2023-02-26T04:58:54.672Z,50.50
2023-02-26T05:01:21.166Z,50.70
2023-02-26T05:03:47.679Z,50.40
2023-02-26T05:06:14.160Z,50.20
2023-02-26T05:08:40.636Z,50.10
2023-02-26T05:11:07.126Z,50.70
2023-02-26T05:13:33.593Z,50.20
2023-02-26T05:16:00.180Z,51.30
2023-02-26T05:18:26.710Z,50.50
2023-02-26T05:20:53.188Z,50.50
2023-02-26T05:23:19.674Z,50.90
2023-02-26T05:25:46.148Z,50.00
2023-02-26T05:28:12.620Z,50.20
2023-02-26T05:30:39.152Z,50.90
2023-02-26T05:33:05.663Z,50.10
2023-02-26T05:35:32.140Z,51.30
2023-02-26T05:37:58.656Z,50.50
2023-02-26T05:40:25.138Z,50.60
2023-02-26T05:42:51.646Z,50.60
2023-02-26T05:45:18.128Z,50.50
2023-02-26T05:47:44.634Z,50.50
2023-02-26T05:50:11.098Z,50.30
2023-02-26T05:52:37.598Z,49.90
2023-02-26T05:55:04.083Z,50.20
2023-02-26T05:57:30.611Z,50.20
2023-02-26T05:59:57.072Z,49.70
2023-02-26T06:02:23.559Z,50.70
2023-02-26T06:04:50.036Z,50.30
2023-02-26T06:07:16.531Z,50.40
2023-02-26T06:09:43.000Z,49.70
2023-02-26T06:12:09.494Z,49.90
2023-02-26T06:14:36.003Z,49.40
2023-02-26T06:17:02.526Z,50.40
2023-02-26T06:19:29.005Z,50.20
2023-02-26T06:21:55.471Z,50.20
2023-02-26T06:24:21.949Z,49.90
2023-02-26T06:26:48.432Z,49.80
2023-02-26T06:29:14.918Z,49.80
2023-02-26T06:31:41.577Z,50.10
2023-02-26T06:34:08.552Z,49.90
2023-02-26T06:36:35.030Z,49.80
2023-02-26T06:39:01.577Z,50.00
2023-02-26T06:41:28.220Z,50.30
2023-02-26T06:43:54.714Z,49.80
2023-02-26T06:46:21.247Z,49.90
2023-02-26T06:48:47.788Z,50.00
2023-02-26T06:51:14.255Z,50.00
2023-02-26T06:53:40.777Z,50.10
2023-02-26T06:56:07.256Z,50.00
2023-02-26T06:58:33.753Z,49.70
2023-02-26T07:01:00.266Z,49.60
2023-02-26T07:03:26.791Z,49.90
2023-02-26T07:05:53.277Z,49.70
2023-02-26T07:08:19.759Z,49.40
2023-02-26T07:10:46.237Z,49.50
2023-02-26T07:13:14.557Z,49.50
2023-02-26T07:15:41.040Z,49.40
2023-02-26T07:18:07.534Z,49.40
2023-02-26T07:20:34.028Z,49.20
2023-02-26T07:23:00.513Z,49.00
2023-02-26T07:25:26.996Z,49.00
2023-02-26T07:27:53.474Z,48.90
2023-02-26T07:30:19.939Z,49.00
2023-02-26T07:32:46.413Z,48.50
2023-02-26T07:35:12.905Z,48.80
2023-02-26T07:37:39.390Z,48.60
2023-02-26T07:40:05.877Z,48.60
2023-02-26T07:42:32.357Z,48.30
2023-02-26T07:44:58.838Z,48.60
2023-02-26T07:47:25.340Z,48.70
2023-02-26T07:49:51.843Z,48.40
2023-02-26T07:52:18.345Z,48.60
2023-02-26T07:54:44.835Z,48.50
2023-02-26T07:57:11.298Z,48.40
2023-02-26T07:59:37.766Z,48.20
2023-02-26T08:02:04.242Z,48.30
2023-02-26T08:04:30.763Z,48.20
2023-02-26T08:06:57.300Z,48.00
2023-02-26T08:09:23.848Z,48.00
2023-02-26T08:11:50.312Z,48.00
2023-02-26T08:14:16.804Z,48.20
2023-02-26T08:16:43.270Z,48.30
2023-02-26T08:19:09.783Z,48.60
2023-02-26T08:21:36.287Z,48.20
2023-02-26T08:24:02.799Z,48.50
2023-02-26T08:26:29.278Z,48.50
2023-02-26T08:28:55.762Z,48.50
2023-02-26T08:31:22.344Z,49.00
2023-02-26T08:33:48.884Z,48.50
2023-02-26T08:36:15.387Z,48.00
2023-02-26T08:38:41.843Z,48.50
2023-02-26T08:41:08.353Z,48.50
2023-02-26T08:43:34.831Z,48.20
2023-02-26T08:46:01.323Z,48.20
2023-02-26T08:48:27.817Z,48.10
2023-02-26T08:50:54.289Z,48.50
2023-02-26T08:53:20.751Z,48.70
2023-02-26T08:55:47.240Z,48.90
2023-02-26T08:58:13.728Z,48.60
2023-02-26T09:00:40.238Z,48.80
2023-02-26T09:03:06.819Z,48.80
2023-02-26T09:05:33.390Z,48.70
2023-02-26T09:08:00.114Z,49.20
2023-02-26T09:10:26.668Z,48.60
2023-02-26T09:12:53.155Z,48.50
2023-02-26T09:15:19.659Z,48.40
2023-02-26T09:17:46.137Z,48.30
2023-02-26T09:20:12.657Z,48.50
2023-02-26T09:22:39.154Z,48.50
2023-02-26T09:25:05.632Z,48.60
2023-02-26T09:27:32.109Z,48.80
2023-02-26T09:29:58.580Z,48.90
2023-02-26T09:32:25.134Z,48.90
2023-02-26T09:34:51.650Z,48.90
2023-02-26T09:37:18.132Z,49.00
2023-02-26T09:39:44.620Z,49.10
2023-02-26T09:42:11.109Z,49.00
2023-02-26T09:44:37.589Z,48.90
2023-02-26T09:47:08.686Z,49.00
2023-02-26T09:49:35.168Z,49.10
2023-02-26T09:52:01.679Z,49.10
2023-02-26T09:54:28.175Z,48.90
2023-02-26T09:56:54.668Z,49.10
2023-02-26T09:59:21.284Z,49.10
2023-02-26T10:01:47.812Z,49.10
2023-02-26T10:04:14.369Z,49.20
2023-02-26T10:06:40.890Z,49.30
2023-02-26T10:09:07.364Z,49.30
2023-02-26T10:11:33.881Z,49.50
2023-02-26T10:14:00.353Z,49.30
2023-02-26T10:16:27.162Z,49.30
2023-02-26T10:18:53.908Z,49.40
2023-02-26T10:21:20.399Z,49.80
2023-02-26T10:23:46.861Z,49.40
2023-02-26T10:26:13.388Z,49.40
2023-02-26T10:28:39.858Z,49.30
2023-02-26T10:31:06.425Z,49.30
2023-02-26T10:33:32.934Z,49.30
2023-02-26T10:35:59.462Z,49.50
2023-02-26T10:38:25.918Z,49.30
2023-02-26T10:40:52.429Z,49.30
2023-02-26T10:43:18.901Z,49.30
2023-02-26T10:45:45.449Z,49.30
2023-02-26T10:48:11.928Z,49.20
2023-02-26T10:50:38.406Z,49.10
2023-02-26T10:53:04.889Z,49.10
2023-02-26T10:55:31.402Z,49.20
2023-02-26T10:57:57.983Z,49.00
2023-02-26T11:00:24.501Z,49.20
2023-02-26T11:02:50.981Z,49.10
2023-02-26T11:05:17.460Z,48.80
2023-02-26T11:07:43.945Z,48.80
2023-02-26T11:10:10.430Z,48.90
2023-02-26T11:12:36.917Z,48.80
2023-02-26T11:15:03.402Z,48.90
2023-02-26T11:17:29.902Z,48.60
2023-02-26T11:19:56.399Z,48.80
2023-02-26T11:22:22.890Z,48.70
2023-02-26T11:24:49.377Z,48.60
2023-02-26T11:27:15.866Z,48.70
2023-02-26T11:29:42.345Z,48.70
2023-02-26T11:32:08.918Z,48.50
2023-02-26T11:34:35.415Z,48.40
2023-02-26T11:37:01.891Z,48.50
2023-02-26T11:39:28.357Z,48.60
2023-02-26T11:41:54.870Z,48.50
2023-02-26T11:44:21.357Z,48.50
2023-02-26T11:46:47.863Z,48.50
2023-02-26T11:49:14.328Z,48.50
2023-02-26T11:51:40.828Z,48.40
2023-02-26T11:54:07.304Z,48.30
2023-02-26T11:56:33.822Z,48.30
2023-02-26T11:59:00.330Z,48.30
2023-02-26T12:01:27.160Z,48.40
2023-02-26T12:03:56.801Z,48.40
2023-02-26T12:06:23.286Z,48.40
2023-02-26T12:08:49.778Z,48.50
2023-02-26T12:11:16.264Z,48.50
2023-02-26T12:13:42.747Z,48.40
2023-02-26T12:16:09.279Z,48.30
2023-02-26T12:18:35.784Z,48.20
2023-02-26T12:21:02.274Z,48.40
2023-02-26T12:23:28.758Z,47.90
2023-02-26T12:25:55.263Z,47.80
2023-02-26T12:28:21.749Z,48.30
2023-02-26T12:30:48.272Z,48.20
2023-02-26T12:33:14.730Z,48.40
2023-02-26T12:35:41.224Z,48.50
2023-02-26T12:38:07.705Z,48.30
2023-02-26T12:40:34.198Z,48.40
2023-02-26T12:43:00.668Z,48.30
2023-02-26T12:45:27.145Z,48.10
2023-02-26T12:47:53.639Z,48.10
2023-02-26T12:50:20.135Z,48.10
2023-02-26T12:52:46.630Z,48.20
2023-02-26T12:55:13.115Z,48.10
2023-02-26T12:57:39.614Z,48.20
2023-02-26T13:00:06.142Z,47.40
2023-02-26T13:02:32.659Z,46.70
2023-02-26T13:04:59.146Z,46.90
2023-02-26T13:07:25.639Z,46.80
2023-02-26T13:09:52.124Z,47.50
2023-02-26T13:12:18.600Z,47.40
2023-02-26T13:14:45.093Z,47.10
2023-02-26T13:17:11.578Z,46.80
2023-02-26T13:19:38.067Z,46.90
2023-02-26T13:22:04.550Z,47.10
2023-02-26T13:24:31.038Z,47.40
2023-02-26T13:26:57.537Z,47.50
2023-02-26T13:29:24.009Z,47.60
2023-02-26T13:31:50.584Z,47.80
2023-02-26T13:34:17.143Z,47.70
2023-02-26T13:36:43.646Z,47.70
2023-02-26T13:39:10.133Z,47.80
2023-02-26T13:41:37.790Z,47.70
2023-02-26T13:44:06.161Z,47.80
2023-02-26T13:46:32.674Z,47.70
2023-02-26T13:48:59.157Z,47.50
2023-02-26T13:51:25.933Z,47.60
2023-02-26T13:53:52.631Z,47.80
2023-02-26T13:56:19.114Z,47.70
2023-02-26T13:58:45.593Z,47.50
2023-02-26T14:01:12.203Z,47.60
2023-02-26T14:03:38.720Z,47.50
2023-02-26T14:06:05.240Z,47.40
2023-02-26T14:08:31.736Z,47.50
2023-02-26T14:10:58.219Z,47.50
2023-02-26T14:13:24.716Z,47.20
2023-02-26T14:15:51.220Z,47.40
2023-02-26T14:18:20.919Z,47.40
2023-02-26T14:20:47.403Z,47.30
2023-02-26T14:23:13.890Z,47.40
2023-02-26T14:25:40.396Z,47.20
2023-02-26T14:28:06.877Z,47.40
2023-02-26T14:30:33.482Z,47.20
2023-02-26T14:33:00.032Z,47.30
2023-02-26T14:35:26.499Z,47.20
2023-02-26T14:37:53.009Z,47.10
2023-02-26T14:40:19.469Z,47.00
2023-02-26T14:42:45.948Z,47.00
2023-02-26T14:45:12.417Z,47.00
2023-02-26T14:47:38.909Z,46.90
2023-02-26T14:50:05.359Z,46.70
2023-02-26T14:52:31.853Z,46.80
2023-02-26T14:54:58.331Z,46.80
2023-02-26T14:57:24.855Z,46.60
2023-02-26T14:59:51.344Z,46.60
2023-02-26T15:02:17.942Z,46.80
2023-02-26T15:04:44.491Z,46.40
2023-02-26T15:07:10.960Z,46.40
2023-02-26T15:09:37.454Z,46.20
2023-02-26T15:12:03.956Z,46.80
2023-02-26T15:14:30.468Z,46.20
2023-02-26T15:16:56.957Z,46.50
2023-02-26T15:19:23.454Z,46.10
2023-02-26T15:21:49.932Z,46.00
2023-02-26T15:24:16.441Z,45.80
2023-02-26T15:26:42.915Z,45.70
2023-02-26T15:29:14.977Z,45.90
2023-02-26T15:31:41.564Z,45.70
2023-02-26T15:34:08.219Z,45.60
2023-02-26T15:36:34.712Z,45.90
2023-02-26T15:39:01.226Z,46.10
2023-02-26T15:41:27.774Z,45.80
2023-02-26T15:43:54.262Z,45.70
2023-02-26T15:46:20.770Z,45.90
2023-02-26T15:48:47.264Z,46.10
2023-02-26T15:51:13.746Z,46.30
2023-02-26T15:53:40.245Z,46.00
2023-02-26T15:56:06.717Z,46.00
2023-02-26T15:58:33.199Z,46.40
2023-02-26T16:00:59.683Z,46.40
2023-02-26T16:03:26.235Z,46.90
2023-02-26T16:05:57.198Z,46.30
2023-02-26T16:08:27.126Z,46.50
2023-02-26T16:10:53.678Z,46.40
2023-02-26T16:13:20.178Z,46.70
2023-02-26T16:15:51.076Z,47.10
2023-02-26T16:18:17.590Z,46.70
2023-02-26T16:20:44.084Z,46.90
2023-02-26T16:23:10.561Z,46.70
2023-02-26T16:25:37.094Z,46.80
2023-02-26T16:28:03.669Z,46.30
2023-02-26T16:30:30.166Z,46.80
2023-02-26T16:32:56.732Z,46.90
2023-02-26T16:35:23.273Z,47.40
2023-02-26T16:37:49.764Z,46.70
2023-02-26T16:40:16.252Z,46.60
2023-02-26T16:42:42.723Z,47.00
2023-02-26T16:45:09.218Z,46.30
2023-02-26T16:47:35.671Z,46.90
2023-02-26T16:50:02.204Z,46.60
2023-02-26T16:52:28.703Z,47.00
2023-02-26T16:54:55.187Z,47.10
2023-02-26T16:57:21.672Z,47.40
2023-02-26T16:59:48.184Z,46.60
2023-02-26T17:02:14.669Z,46.90
2023-02-26T17:04:41.178Z,46.50
2023-02-26T17:07:07.636Z,46.20
2023-02-26T17:09:34.147Z,46.50
2023-02-26T17:12:00.614Z,46.40
2023-02-26T17:14:27.117Z,47.00
2023-02-26T17:16:53.602Z,46.10
2023-02-26T17:19:20.128Z,46.10
2023-02-26T17:21:46.638Z,46.10
2023-02-26T17:24:13.137Z,46.10
2023-02-26T17:26:45.044Z,45.90
2023-02-26T17:29:11.508Z,45.90
2023-02-26T17:31:38.035Z,45.90
2023-02-26T17:34:04.555Z,45.70
2023-02-26T17:36:31.046Z,46.20
2023-02-26T17:38:57.525Z,45.90
2023-02-26T17:41:24.150Z,46.10
2023-02-26T17:43:50.837Z,46.40
2023-02-26T17:46:17.319Z,45.90
2023-02-26T17:48:43.781Z,46.20
2023-02-26T17:51:10.264Z,46.00
2023-02-26T17:53:36.740Z,45.80
2023-02-26T17:56:03.241Z,45.70
2023-02-26T17:58:29.724Z,45.60
2023-02-26T18:00:56.251Z,45.80
2023-02-26T18:03:22.737Z,45.60
2023-02-26T18:05:49.235Z,45.70
2023-02-26T18:08:15.708Z,45.80
2023-02-26T18:10:42.306Z,45.70
2023-02-26T18:13:08.798Z,45.70
2023-02-26T18:15:35.302Z,45.60
2023-02-26T18:18:01.796Z,45.70
2023-02-26T18:20:28.307Z,45.60
2023-02-26T18:22:57.072Z,46.10
2023-02-26T18:25:23.575Z,45.30
2023-02-26T18:27:50.057Z,45.70
2023-02-26T18:30:21.135Z,45.50
2023-02-26T18:32:47.649Z,45.70
2023-02-26T18:35:14.169Z,45.70
2023-02-26T18:37:40.655Z,45.50
2023-02-26T18:40:07.158Z,46.00
2023-02-26T18:42:33.650Z,45.70
2023-02-26T18:45:00.127Z,45.40
2023-02-26T18:47:26.605Z,45.60
2023-02-26T18:49:53.086Z,45.50
2023-02-26T18:52:19.575Z,45.50
2023-02-26T18:54:46.060Z,45.60
2023-02-26T18:57:13.693Z,45.50
2023-02-26T18:59:40.167Z,45.50
2023-02-26T19:02:06.849Z,45.60
2023-02-26T19:04:33.338Z,45.60
2023-02-26T19:07:03.155Z,45.40
2023-02-26T19:09:29.636Z,45.50
2023-02-26T19:11:56.132Z,45.60
2023-02-26T19:14:22.624Z,45.60
2023-02-26T19:16:49.109Z,45.60
2023-02-26T19:19:15.575Z,45.50
2023-02-26T19:21:42.068Z,45.60
2023-02-26T19:24:08.532Z,45.60
2023-02-26T19:26:35.026Z,45.60
2023-02-26T19:29:01.488Z,45.60
2023-02-26T19:31:28.466Z,45.60
2023-02-26T19:33:55.232Z,45.70
2023-02-26T19:36:21.743Z,45.60
2023-02-26T19:38:48.239Z,45.60
2023-02-26T19:41:14.748Z,45.70
2023-02-26T19:43:41.231Z,45.80
2023-02-26T19:46:07.785Z,45.50
2023-02-26T19:48:34.286Z,45.70
2023-02-26T19:51:00.796Z,45.60
2023-02-26T19:53:27.279Z,45.50
2023-02-26T19:55:53.773Z,45.60
2023-02-26T19:58:20.262Z,45.40
2023-02-26T20:00:46.784Z,45.60
2023-02-26T20:03:13.255Z,45.60
2023-02-26T20:05:39.718Z,45.80
2023-02-26T20:08:06.254Z,45.50
2023-02-26T20:10:32.721Z,45.50
2023-02-26T20:13:03.211Z,45.70
2023-02-26T20:15:29.705Z,45.60
2023-02-26T20:17:56.196Z,45.70
2023-02-26T20:20:22.674Z,45.70
2023-02-26T20:22:51.216Z,45.70
2023-02-26T20:25:17.706Z,45.70
2023-02-26T20:27:44.195Z,45.70
2023-02-26T20:30:10.706Z,45.60
2023-02-26T20:32:37.373Z,45.50
2023-02-26T20:35:03.984Z,45.70
2023-02-26T20:37:30.457Z,45.50
2023-02-26T20:39:56.912Z,45.50
2023-02-26T20:42:23.393Z,45.20
2023-02-26T20:44:49.856Z,45.50
2023-02-26T20:47:16.345Z,45.50
2023-02-26T20:49:42.815Z,45.50
2023-02-26T20:52:09.317Z,45.50
2023-02-26T20:54:35.791Z,45.60
2023-02-26T20:57:02.304Z,45.50
2023-02-26T20:59:28.790Z,45.40
2023-02-26T21:01:55.261Z,45.60
2023-02-26T21:04:21.748Z,45.50
2023-02-26T21:06:48.226Z,45.50
2023-02-26T21:09:14.728Z,45.40
2023-02-26T21:11:41.221Z,45.30
2023-02-26T21:14:07.736Z,45.40
2023-02-26T21:16:34.240Z,45.70
2023-02-26T21:19:00.741Z,45.30
2023-02-26T21:21:27.225Z,45.50
2023-02-26T21:23:53.720Z,45.60
2023-02-26T21:26:20.218Z,45.60
2023-02-26T21:28:46.716Z,45.50
2023-02-26T21:31:13.218Z,45.70
2023-02-26T21:33:39.739Z,45.60
2023-02-26T21:36:06.202Z,45.40
2023-02-26T21:38:32.697Z,45.50
2023-02-26T21:40:59.170Z,45.70
2023-02-26T21:43:25.662Z,46.20
2023-02-26T21:45:52.158Z,45.40
2023-02-26T21:48:18.692Z,45.70
2023-02-26T21:50:45.192Z,45.50
2023-02-26T21:53:11.691Z,45.50
2023-02-26T21:55:38.160Z,45.60
2023-02-26T21:58:04.629Z,45.60
2023-02-26T22:00:31.092Z,45.30
2023-02-26T22:02:57.637Z,45.60
2023-02-26T22:05:27.285Z,45.50
2023-02-26T22:07:53.748Z,45.50
2023-02-26T22:10:20.236Z,45.40
2023-02-26T22:12:46.733Z,45.40
2023-02-26T22:15:13.203Z,45.40
2023-02-26T22:17:39.663Z,45.50
2023-02-26T22:20:06.143Z,45.40
2023-02-26T22:22:32.609Z,45.60
2023-02-26T22:24:59.089Z,45.60
2023-02-26T22:27:25.562Z,45.50
2023-02-26T22:29:52.048Z,45.50
2023-02-26T22:32:18.510Z,45.50
2023-02-26T22:34:46.160Z,45.30
2023-02-26T22:37:12.686Z,45.60
2023-02-26T22:39:39.163Z,45.30
2023-02-26T22:42:09.457Z,45.40
2023-02-26T22:44:35.932Z,45.30
2023-02-26T22:47:02.398Z,45.20
2023-02-26T22:49:28.841Z,45.30
2023-02-26T22:51:55.330Z,45.30
2023-02-26T22:54:21.805Z,45.60
2023-02-26T22:56:48.320Z,45.40
2023-02-26T22:59:14.810Z,45.30
2023-02-26T23:01:41.674Z,45.40
2023-02-26T23:04:08.464Z,45.40
2023-02-26T23:06:34.951Z,45.60
2023-02-26T23:09:01.444Z,45.40
2023-02-26T23:11:28.224Z,45.40
2023-02-26T23:13:54.958Z,45.50
2023-02-26T23:16:21.434Z,45.30
2023-02-26T23:18:47.955Z,45.40
2023-02-26T23:21:14.446Z,45.40
2023-02-26T23:23:40.931Z,45.50
2023-02-26T23:26:07.412Z,45.60
2023-02-26T23:28:33.884Z,45.50
2023-02-26T23:31:00.460Z,45.50
2023-02-26T23:33:27.048Z,45.50
2023-02-26T23:35:53.531Z,45.40
2023-02-26T23:38:20.228Z,45.50
2023-02-26T23:40:46.749Z,45.50
2023-02-26T23:43:13.230Z,45.50
2023-02-26T23:45:39.740Z,45.50
2023-02-26T23:48:06.221Z,45.50
2023-02-26T23:50:32.708Z,45.50
2023-02-26T23:52:59.153Z,45.50
2023-02-26T23:55:25.662Z,45.70
2023-02-26T23:57:52.133Z,45.60
